Time;durP1;ratioP1;P1;durP2;ratioP2;P2;SDS_P1;SDS_P2;PMS_P1;PMS_P2;Temp;Humidity;BMP_temperature;BMP_pressure;BME280_temperature;BME280_humidity;BME280_pressure;Samples;Min_cycle;Max_cycle;Signal;HPM_P1;HPM_P2
2022/12/13 00:00:36;;;;;;;73.22;22.58;;;-6.60;99.90;;;;;;5008842;28;20038;-66
2022/12/13 00:03:02;;;;;;;73.93;23.27;;;-6.60;99.90;;;;;;5011526;28;20037;-66
2022/12/13 00:05:28;;;;;;;69.57;21.42;;;-6.70;99.90;;;;;;5005167;28;20530;-65
2022/12/13 00:07:53;;;;;;;75.10;23.38;;;-6.70;99.90;;;;;;5014537;28;20056;-66
2022/12/13 00:10:19;;;;;;;80.28;23.88;;;-6.70;99.90;;;;;;5014477;28;20030;-65
2022/12/13 00:12:45;;;;;;;68.63;21.45;;;-6.70;99.90;;;;;;4991067;28;20035;-65
2022/12/13 00:15:11;;;;;;;69.38;22.08;;;-6.70;99.90;;;;;;4993555;28;20780;-66
2022/12/13 00:17:36;;;;;;;72.45;21.70;;;-6.70;99.90;;;;;;4990615;28;20033;-65
2022/12/13 00:20:03;;;;;;;65.57;20.90;;;-6.70;99.90;;;;;;4996267;28;20042;-66
2022/12/13 00:22:29;;;;;;;74.35;22.75;;;-6.70;99.90;;;;;;5018417;28;20107;-65
2022/12/13 00:24:57;;;;;;;72.82;23.05;;;-6.60;99.90;;;;;;5012109;28;20463;-65
2022/12/13 00:27:23;;;;;;;78.25;21.67;;;-6.70;99.90;;;;;;4991834;28;20100;-66
2022/12/13 00:29:49;;;;;;;75.93;22.98;;;-6.60;99.90;;;;;;5010118;28;20042;-66
2022/12/13 00:32:15;;;;;;;74.53;21.88;;;-6.60;99.90;;;;;;5015696;28;20034;-65
2022/12/13 00:34:41;;;;;;;76.32;21.90;;;-6.60;99.90;;;;;;5008274;28;21009;-65
2022/12/13 00:37:06;;;;;;;69.85;20.52;;;-6.60;99.90;;;;;;5009972;28;20382;-65
2022/12/13 00:39:32;;;;;;;80.80;23.75;;;-6.50;99.90;;;;;;4991333;28;20084;-66
2022/12/13 00:41:57;;;;;;;87.45;25.80;;;-6.50;99.90;;;;;;4995522;28;20036;-66
2022/12/13 00:44:23;;;;;;;78.38;24.75;;;-6.40;99.90;;;;;;5007036;28;20038;-66
2022/12/13 00:46:50;;;;;;;86.05;24.67;;;-6.40;99.90;;;;;;5008419;28;20034;-64
2022/12/13 00:49:16;;;;;;;89.85;25.67;;;-6.40;99.90;;;;;;5011147;28;20498;-65
2022/12/13 00:51:42;;;;;;;77.25;23.05;;;-6.40;99.90;;;;;;5007986;28;20165;-65
2022/12/13 00:54:08;;;;;;;77.38;22.75;;;-6.40;99.90;;;;;;5008407;28;20490;-65
2022/12/13 00:56:36;;;;;;;71.57;22.60;;;-6.40;99.90;;;;;;4993637;28;20060;-66
2022/12/13 00:59:02;;;;;;;85.25;25.20;;;-6.50;99.90;;;;;;5003786;28;20537;-66
2022/12/13 01:01:30;;;;;;;71.43;23.67;;;-6.50;99.90;;;;;;4996279;28;20041;-66
2022/12/13 01:03:59;;;;;;;69.70;22.95;;;-6.40;99.90;;;;;;4993607;28;20076;-66
2022/12/13 01:06:37;;;;;;;76.95;23.40;;;-6.50;99.90;;;;;;5009024;28;20107;-66
2022/12/13 01:09:06;;;;;;;72.18;22.83;;;-6.60;99.90;;;;;;5007144;28;20029;-66
2022/12/13 01:11:32;;;;;;;76.78;22.20;;;-6.60;99.90;;;;;;4997071;28;20038;-66
2022/12/13 01:13:58;;;;;;;78.55;23.23;;;-6.60;99.90;;;;;;5007470;28;20107;-64
2022/12/13 01:16:23;;;;;;;80.05;23.58;;;-6.50;99.90;;;;;;5003587;28;20471;-64
2022/12/13 01:18:49;;;;;;;80.40;24.55;;;-6.50;99.90;;;;;;5008496;28;20467;-64
2022/12/13 01:21:18;;;;;;;74.60;22.65;;;-6.50;99.90;;;;;;4992589;28;20034;-66
2022/12/13 01:23:44;;;;;;;72.53;22.80;;;-6.50;99.90;;;;;;5026137;28;20057;-66
2022/12/13 01:26:13;;;;;;;79.30;23.70;;;-6.40;99.90;;;;;;4997339;28;20041;-65
2022/12/13 01:28:39;;;;;;;68.65;21.52;;;-6.40;99.90;;;;;;5009101;28;20029;-65
2022/12/13 01:31:07;;;;;;;76.30;23.05;;;-6.40;99.90;;;;;;5007257;28;20041;-65
2022/12/13 01:33:35;;;;;;;71.20;22.52;;;-6.50;99.90;;;;;;5006595;28;20069;-65
2022/12/13 01:36:04;;;;;;;72.63;23.38;;;-6.50;99.90;;;;;;5007798;28;20034;-66
2022/12/13 01:38:29;;;;;;;64.88;21.25;;;-6.50;99.90;;;;;;5005828;28;20034;-66
2022/12/13 01:40:58;;;;;;;75.55;22.08;;;-6.50;99.90;;;;;;5008126;28;20030;-66
2022/12/13 01:43:27;;;;;;;66.35;20.00;;;-6.50;99.90;;;;;;5008481;28;20096;-65
2022/12/13 01:45:53;;;;;;;72.63;22.17;;;-6.40;99.90;;;;;;5004203;28;20432;-66
2022/12/13 01:48:27;;;;;;;83.05;22.42;;;-6.50;99.90;;;;;;4990174;28;20109;-66
2022/12/13 01:50:58;;;;;;;71.75;21.27;;;-6.40;99.90;;;;;;4999294;28;20040;-66
2022/12/13 01:53:29;;;;;;;69.07;21.05;;;-6.40;99.90;;;;;;5010946;28;20034;-66
2022/12/13 01:56:01;;;;;;;71.70;21.30;;;-6.30;99.90;;;;;;5024466;28;20033;-65
2022/12/13 01:58:27;;;;;;;72.18;22.05;;;-6.30;99.90;;;;;;5018977;28;20031;-65
2022/12/13 02:00:53;;;;;;;69.70;21.13;;;-6.40;99.90;;;;;;4995767;28;20131;-64
2022/12/13 02:03:21;;;;;;;73.38;20.98;;;-6.50;99.90;;;;;;5008027;28;20147;-65
2022/12/13 02:06:04;;;;;;;68.18;21.60;;;-6.70;99.90;;;;;;5006818;28;20099;-65
2022/12/13 02:08:30;;;;;;;64.65;20.75;;;-6.80;99.90;;;;;;5010801;28;20099;-64
2022/12/13 02:10:57;;;;;;;76.03;22.13;;;-6.80;99.90;;;;;;5010358;28;20034;-65
2022/12/13 02:13:23;;;;;;;76.15;21.77;;;-6.80;99.90;;;;;;5005934;28;20073;-65
2022/12/13 02:16:24;;;;;;;69.40;21.48;;;-6.70;99.90;;;;;;5008433;28;20068;-64
2022/12/13 02:19:16;;;;;;;79.22;22.23;;;-6.80;99.90;;;;;;5005810;28;20674;-64
2022/12/13 02:21:42;;;;;;;71.95;22.15;;;-6.90;99.90;;;;;;5002262;28;20092;-66
2022/12/13 02:24:23;;;;;;;68.25;20.88;;;-6.90;99.90;;;;;;4991020;28;20582;-65
2022/12/13 02:27:10;;;;;;;75.38;22.58;;;-6.90;99.90;;;;;;5007158;28;20065;-63
2022/12/13 02:30:16;;;;;;;70.90;20.80;;;-6.90;99.90;;;;;;4989169;28;20034;-64
2022/12/13 02:32:56;;;;;;;64.07;19.35;;;-6.80;99.90;;;;;;5001560;28;20041;-65
2022/12/13 02:35:29;;;;;;;;;;;-6.90;99.90;;;;;;5029056;28;20048;-65
2022/12/13 02:38:15;;;;;;;67.72;18.75;;;-6.80;99.90;;;;;;5003656;28;20453;-63
2022/12/13 02:40:58;;;;;;;77.75;19.15;;;-6.80;99.90;;;;;;5005876;28;20030;-64
2022/12/13 02:43:31;;;;;;;57.65;18.25;;;-6.80;99.90;;;;;;5003373;28;20100;-65
2022/12/13 02:46:02;;;;;;;65.45;19.02;;;-6.80;99.90;;;;;;4998111;28;20113;-65
2022/12/13 02:48:35;;;;;;;63.88;19.80;;;-6.80;99.90;;;;;;5015967;28;20049;-65
2022/12/13 02:51:03;;;;;;;62.80;19.15;;;-6.80;99.90;;;;;;5011779;28;20034;-66
2022/12/13 02:53:31;;;;;;;58.38;19.15;;;-6.70;99.90;;;;;;5002871;28;20045;-64
2022/12/13 02:55:56;;;;;;;71.93;18.67;;;-6.70;99.90;;;;;;4988238;28;20099;-66
2022/12/13 02:58:28;;;;;;;66.43;19.83;;;-6.80;99.90;;;;;;4999087;28;20029;-64
2022/12/13 03:01:18;;;;;;;60.47;18.42;;;-6.70;99.90;;;;;;5009305;28;20030;-65
2022/12/13 03:04:18;;;;;;;60.17;18.45;;;-6.70;99.90;;;;;;4988546;28;20041;-63
2022/12/13 03:07:05;;;;;;;65.32;18.10;;;-6.70;99.90;;;;;;4994274;28;20133;-65
2022/12/13 03:09:45;;;;;;;65.03;18.55;;;-6.70;99.90;;;;;;4989773;28;20729;-65
2022/12/13 03:15:46;;;;;;;62.88;16.95;;;-6.60;99.90;;;;;;5008868;28;19956;-65
2022/12/13 03:18:18;;;;;;;62.17;18.30;;;-6.70;99.90;;;;;;4969510;28;20084;-64
2022/12/13 03:20:46;;;;;;;62.20;18.33;;;-6.70;99.90;;;;;;5005883;28;20030;-64
2022/12/13 03:23:12;;;;;;;60.35;17.67;;;-6.70;99.90;;;;;;5008378;28;20364;-64
2022/12/13 03:25:38;;;;;;;61.97;18.95;;;-6.80;99.90;;;;;;4999324;28;20046;-64
2022/12/13 03:28:04;;;;;;;56.22;17.67;;;-6.80;99.90;;;;;;5007805;28;20034;-65
2022/12/13 03:30:31;;;;;;;68.40;18.85;;;-6.80;99.90;;;;;;5002033;28;20026;-65
2022/12/13 03:32:57;;;;;;;66.43;19.05;;;-6.80;99.90;;;;;;5007841;28;20088;-65
2022/12/13 03:35:23;;;;;;;65.18;18.42;;;-6.80;99.90;;;;;;5000300;28;20439;-65
2022/12/13 03:37:49;;;;;;;74.03;19.20;;;-6.80;99.90;;;;;;5006165;28;20510;-64
2022/12/13 03:40:15;;;;;;;68.40;19.15;;;-6.80;99.90;;;;;;5007028;28;20113;-65
2022/12/13 03:42:41;;;;;;;65.38;19.13;;;-6.80;99.90;;;;;;5006158;28;20129;-65
2022/12/13 03:45:07;;;;;;;67.25;19.63;;;-6.70;99.90;;;;;;5012393;28;20113;-65
2022/12/13 03:47:33;;;;;;;68.57;18.83;;;-6.70;99.90;;;;;;5011598;28;20780;-67
2022/12/13 03:49:59;;;;;;;62.22;18.63;;;-6.70;99.90;;;;;;5005872;28;20033;-67
2022/12/13 03:52:24;;;;;;;64.22;18.42;;;-6.70;99.90;;;;;;4997463;28;20021;-64
2022/12/13 03:54:50;;;;;;;63.78;17.90;;;-6.70;99.90;;;;;;4994740;28;20041;-64
2022/12/13 03:57:15;;;;;;;51.40;17.55;;;-6.70;99.90;;;;;;5002442;28;20040;-64
2022/12/13 03:59:41;;;;;;;62.53;18.33;;;-6.70;99.90;;;;;;5008141;28;20038;-65
2022/12/13 04:02:07;;;;;;;54.58;17.48;;;-6.70;99.90;;;;;;5008630;28;20041;-65
2022/12/13 04:04:32;;;;;;;59.70;17.92;;;-6.70;99.90;;;;;;5008873;28;20026;-63
2022/12/13 04:06:58;;;;;;;60.50;18.67;;;-6.80;99.90;;;;;;5005198;28;20108;-63
2022/12/13 04:09:23;;;;;;;63.47;18.63;;;-6.80;99.90;;;;;;5005778;28;20026;-65
2022/12/13 04:14:33;;;;;;;55.70;17.88;;;-6.80;99.90;;;;;;4991520;28;20072;-64
2022/12/13 04:16:59;;;;;;;57.15;17.38;;;-6.70;99.90;;;;;;5006780;28;20057;-65
2022/12/13 04:19:24;;;;;;;69.53;20.23;;;-6.70;99.90;;;;;;5008407;28;20023;-65
2022/12/13 04:21:53;;;;;;;58.75;19.08;;;-6.80;99.90;;;;;;5022047;28;20030;-64
2022/12/13 04:24:20;;;;;;;59.92;19.75;;;-6.80;99.90;;;;;;5006326;28;20117;-65
2022/12/13 04:26:45;;;;;;;59.85;17.83;;;-6.90;99.90;;;;;;5008468;28;20043;-65
2022/12/13 04:29:11;;;;;;;65.75;20.13;;;-6.80;99.90;;;;;;5009860;28;20434;-65
2022/12/13 04:31:37;;;;;;;61.92;19.05;;;-6.80;99.90;;;;;;5010569;28;20459;-66
2022/12/13 04:34:03;;;;;;;64.60;18.60;;;-6.80;99.90;;;;;;5010891;28;20030;-63
2022/12/13 04:36:29;;;;;;;60.05;18.63;;;-6.80;99.90;;;;;;5006255;28;20052;-65
2022/12/13 04:38:55;;;;;;;59.03;19.80;;;-6.90;99.90;;;;;;5010284;28;20467;-65
2022/12/13 04:41:20;;;;;;;60.33;18.88;;;-6.90;99.90;;;;;;5002860;28;20073;-64
2022/12/13 04:43:53;;;;;;;61.17;19.35;;;-6.90;99.90;;;;;;4993452;28;20048;-64
2022/12/13 04:46:22;;;;;;;55.85;18.20;;;-7.00;99.90;;;;;;5001537;28;20041;-65
2022/12/13 04:48:47;;;;;;;65.57;20.52;;;-7.00;99.90;;;;;;5007464;28;20034;-63
2022/12/13 04:51:15;;;;;;;63.03;19.25;;;-7.00;99.90;;;;;;5010362;28;20040;-62
2022/12/13 04:53:40;;;;;;;60.42;19.23;;;-7.00;99.90;;;;;;5017356;28;20498;-63
2022/12/13 04:56:06;;;;;;;57.38;18.20;;;-7.00;99.90;;;;;;4995455;28;20037;-65
2022/12/13 04:58:32;;;;;;;60.35;18.00;;;-6.90;99.90;;;;;;5007973;28;20045;-64
2022/12/13 05:00:57;;;;;;;57.83;17.10;;;-6.90;99.90;;;;;;4996269;28;20022;-64
2022/12/13 05:03:23;;;;;;;58.60;17.48;;;-6.90;99.90;;;;;;5005402;28;20030;-64
2022/12/13 05:05:49;;;;;;;56.90;17.63;;;-6.90;99.90;;;;;;4997803;28;20045;-65
2022/12/13 05:08:18;;;;;;;67.60;19.27;;;-6.90;99.90;;;;;;5006499;28;20042;-66
2022/12/13 05:10:44;;;;;;;61.37;19.63;;;-6.90;99.90;;;;;;5001575;28;20045;-65
2022/12/13 05:13:10;;;;;;;62.03;18.30;;;-6.90;99.90;;;;;;5011123;28;20694;-64
2022/12/13 05:15:35;;;;;;;67.65;21.48;;;-7.00;99.90;;;;;;5013265;28;20044;-64
2022/12/13 05:18:03;;;;;;;79.18;23.63;;;-7.00;99.90;;;;;;5022480;28;20030;-64
2022/12/13 05:20:29;;;;;;;59.80;19.45;;;-7.00;99.90;;;;;;5008842;28;20041;-65
2022/12/13 05:22:59;;;;;;;76.95;23.98;;;-7.00;99.90;;;;;;5014988;28;20514;-64
2022/12/13 05:25:24;;;;;;;55.92;18.17;;;-7.00;99.90;;;;;;5005136;28;20038;-65
2022/12/13 05:27:51;;;;;;;61.42;20.52;;;-6.90;99.90;;;;;;5006356;28;20026;-65
2022/12/13 05:30:16;;;;;;;61.97;20.92;;;-6.90;99.90;;;;;;5009267;28;20068;-66
2022/12/13 05:32:42;;;;;;;64.07;20.17;;;-6.90;99.90;;;;;;5011495;28;20030;-69
2022/12/13 05:35:08;;;;;;;61.83;20.17;;;-6.90;99.90;;;;;;5003117;28;20034;-64
2022/12/13 05:37:34;;;;;;;60.72;19.05;;;-6.90;99.90;;;;;;5008316;28;20030;-65
2022/12/13 05:40:02;;;;;;;64.60;20.13;;;-6.90;99.90;;;;;;5008741;28;20706;-65
2022/12/13 05:42:27;;;;;;;62.80;20.70;;;-6.90;99.90;;;;;;5008791;28;20026;-64
2022/12/13 05:44:53;;;;;;;64.03;18.60;;;-6.90;99.90;;;;;;5005696;28;20038;-64
2022/12/13 05:47:18;;;;;;;61.08;19.50;;;-6.90;99.90;;;;;;5008141;28;20045;-65
2022/12/13 05:49:47;;;;;;;67.65;19.38;;;-6.90;99.90;;;;;;4996945;28;20038;-65
2022/12/13 05:52:20;;;;;;;69.50;20.08;;;-6.90;99.90;;;;;;5000379;28;20144;-64
2022/12/13 05:54:46;;;;;;;56.80;17.75;;;-6.90;99.90;;;;;;5006586;28;20616;-63
2022/12/13 05:57:12;;;;;;;64.10;19.08;;;-6.90;99.90;;;;;;5007425;28;20041;-67
2022/12/13 05:59:38;;;;;;;62.15;18.17;;;-6.80;99.90;;;;;;5005837;28;20034;-64
2022/12/13 06:02:03;;;;;;;61.05;18.58;;;-6.80;99.90;;;;;;5006217;28;20033;-64
2022/12/13 06:04:29;;;;;;;56.35;17.52;;;-6.90;99.90;;;;;;4991342;28;20118;-66
2022/12/13 06:06:55;;;;;;;67.60;19.92;;;-6.90;99.90;;;;;;4997936;28;20142;-65
2022/12/13 06:09:21;;;;;;;54.63;17.67;;;-6.90;99.90;;;;;;4998408;28;20732;-64
2022/12/13 06:11:47;;;;;;;80.90;21.90;;;-6.90;99.90;;;;;;5006799;28;20046;-63
2022/12/13 06:14:14;;;;;;;79.95;24.33;;;-6.90;99.90;;;;;;5006741;28;20128;-63
2022/12/13 06:16:40;;;;;;;65.50;19.17;;;-7.00;99.90;;;;;;5007449;28;20053;-64
2022/12/13 06:19:05;;;;;;;64.53;19.23;;;-7.00;99.90;;;;;;5006650;28;20068;-63
2022/12/13 06:21:32;;;;;;;57.55;17.48;;;-7.00;99.90;;;;;;5008008;28;20042;-62
2022/12/13 06:23:58;;;;;;;66.18;20.42;;;-7.00;99.90;;;;;;5009348;28;20506;-65
2022/12/13 06:26:24;;;;;;;62.33;18.58;;;-7.10;99.90;;;;;;5008100;28;20042;-63
2022/12/13 06:28:49;;;;;;;55.50;18.85;;;-7.10;99.90;;;;;;5000507;28;20114;-67
2022/12/13 06:31:15;;;;;;;63.42;20.05;;;-7.10;99.90;;;;;;5007784;28;20626;-62
2022/12/13 06:33:40;;;;;;;69.68;20.33;;;-7.20;99.90;;;;;;5006250;28;20144;-63
2022/12/13 06:36:06;;;;;;;59.30;19.02;;;-7.10;99.90;;;;;;5007989;28;20022;-62
2022/12/13 06:38:32;;;;;;;62.05;18.90;;;-7.10;99.90;;;;;;5007695;28;20123;-64
2022/12/13 06:41:13;;;;;;;54.53;17.52;;;-7.10;99.90;;;;;;5017644;28;20069;-64
2022/12/13 06:43:46;;;;;;;56.20;16.45;;;-7.10;99.90;;;;;;4997748;28;20029;-62
2022/12/13 06:46:12;;;;;;;52.85;16.70;;;-7.10;99.90;;;;;;5000174;28;20060;-64
2022/12/13 06:48:41;;;;;;;55.08;16.63;;;-7.10;99.90;;;;;;5007567;28;20036;-64
2022/12/13 06:51:09;;;;;;;62.30;16.80;;;-7.20;99.90;;;;;;5002239;28;20107;-64
2022/12/13 06:53:37;;;;;;;53.45;16.75;;;-7.20;99.90;;;;;;5002625;28;20037;-64
2022/12/13 06:56:07;;;;;;;53.17;17.00;;;-7.20;99.90;;;;;;5003111;28;20046;-63
2022/12/13 06:58:34;;;;;;;55.53;18.15;;;-7.30;99.90;;;;;;5006320;28;20176;-63
2022/12/13 07:01:05;;;;;;;55.13;17.58;;;-7.20;99.90;;;;;;5003814;28;20044;-63
2022/12/13 07:03:31;;;;;;;58.88;16.63;;;-7.20;99.90;;;;;;5006762;28;20116;-63
2022/12/13 07:05:58;;;;;;;55.75;17.05;;;-7.30;99.90;;;;;;5005666;28;20133;-65
2022/12/13 07:08:24;;;;;;;50.08;16.75;;;-7.30;99.90;;;;;;5007203;28;20033;-64
2022/12/13 07:10:52;;;;;;;52.88;16.60;;;-7.30;99.90;;;;;;5004771;28;20368;-65
2022/12/13 07:13:19;;;;;;;57.38;16.83;;;-7.20;99.90;;;;;;5004024;28;20030;-63
2022/12/13 07:15:45;;;;;;;50.88;16.30;;;-7.20;99.90;;;;;;5010660;28;20024;-63
2022/12/13 07:18:11;;;;;;;50.25;15.30;;;-7.20;99.90;;;;;;5006693;28;20117;-62
2022/12/13 07:20:38;;;;;;;51.45;14.77;;;-7.20;99.90;;;;;;5003048;28;20041;-62
2022/12/13 07:23:04;;;;;;;50.90;15.40;;;-7.20;99.90;;;;;;5001760;28;20165;-63
2022/12/13 07:25:30;;;;;;;52.35;15.57;;;-7.20;99.90;;;;;;5012205;28;20117;-63
2022/12/13 07:28:01;;;;;;;49.47;13.85;;;-7.20;99.90;;;;;;5007331;28;20060;-63
2022/12/13 07:30:27;;;;;;;50.45;14.55;;;-7.20;99.90;;;;;;5009242;28;20038;-62
2022/12/13 07:32:52;;;;;;;48.65;15.57;;;-7.20;99.90;;;;;;5010385;28;20439;-63
2022/12/13 07:35:18;;;;;;;52.40;15.70;;;-7.20;99.90;;;;;;5007960;28;20026;-63
2022/12/13 07:37:44;;;;;;;49.33;13.60;;;-7.10;99.90;;;;;;5002203;28;20049;-63
2022/12/13 07:40:10;;;;;;;63.45;15.93;;;-7.10;99.90;;;;;;5005131;28;20407;-63
2022/12/13 07:42:36;;;;;;;55.80;16.20;;;-7.10;99.90;;;;;;5003112;28;20041;-63
2022/12/13 07:45:01;;;;;;;46.15;13.60;;;-7.10;99.90;;;;;;4998475;28;20103;-62
2022/12/13 07:47:31;;;;;;;52.22;14.55;;;-7.00;99.90;;;;;;5001307;28;20038;-61
2022/12/13 07:49:57;;;;;;;48.70;13.90;;;-7.00;99.90;;;;;;5002696;28;20041;-62
2022/12/13 07:52:23;;;;;;;55.17;14.85;;;-6.90;99.90;;;;;;5010682;28;20293;-62
2022/12/13 07:54:49;;;;;;;50.03;15.68;;;-6.80;99.90;;;;;;5008089;28;20069;-64
2022/12/13 07:57:15;;;;;;;55.47;16.02;;;-6.80;99.90;;;;;;5008088;28;20050;-63
2022/12/13 07:59:40;;;;;;;50.10;14.75;;;-6.80;99.90;;;;;;5005314;28;20038;-63
2022/12/13 08:02:11;;;;;;;58.80;15.25;;;-6.70;99.90;;;;;;5009027;28;20040;-62
2022/12/13 08:04:41;;;;;;;67.60;17.58;;;-6.60;99.90;;;;;;5014193;28;20037;-63
2022/12/13 08:07:08;;;;;;;53.08;15.30;;;-6.60;99.90;;;;;;5017502;28;20170;-64
2022/12/13 08:09:34;;;;;;;52.17;14.48;;;-6.60;99.90;;;;;;4993185;28;20041;-65
2022/12/13 08:12:00;;;;;;;48.33;15.25;;;-6.50;99.90;;;;;;5008634;28;20030;-64
2022/12/13 08:14:26;;;;;;;56.90;16.60;;;-6.50;99.90;;;;;;5006891;28;20041;-65
2022/12/13 08:16:52;;;;;;;74.95;19.77;;;-6.40;99.90;;;;;;5009986;28;20049;-66
2022/12/13 08:19:18;;;;;;;64.30;18.42;;;-6.40;99.90;;;;;;5004358;28;20101;-64
2022/12/13 08:21:43;;;;;;;52.42;14.77;;;-6.40;99.90;;;;;;5009244;28;20078;-66
2022/12/13 08:24:09;;;;;;;56.03;15.27;;;-6.40;99.90;;;;;;5009532;28;20046;-65
2022/12/13 08:26:35;;;;;;;62.10;16.52;;;-6.30;99.90;;;;;;5009803;28;20467;-65
2022/12/13 08:29:01;;;;;;;54.80;16.00;;;-6.30;99.90;;;;;;5002010;28;20029;-63
2022/12/13 08:31:26;;;;;;;49.72;16.05;;;-6.10;99.90;;;;;;4999571;28;20033;-64
2022/12/13 08:33:52;;;;;;;50.42;15.38;;;-6.10;99.90;;;;;;4992948;28;20092;-65
2022/12/13 08:36:18;;;;;;;55.53;15.70;;;-6.10;99.90;;;;;;5009798;28;20026;-64
2022/12/13 08:38:44;;;;;;;59.45;16.88;;;-6.10;99.90;;;;;;4998636;28;20034;-64
2022/12/13 08:41:10;;;;;;;49.30;15.95;;;-6.00;99.90;;;;;;5002329;28;20087;-62
2022/12/13 08:43:36;;;;;;;49.75;15.18;;;-5.90;99.90;;;;;;4990138;28;20110;-64
2022/12/13 08:46:02;;;;;;;46.63;14.93;;;-5.80;99.90;;;;;;5006073;28;20025;-64
2022/12/13 08:48:28;;;;;;;46.08;14.48;;;-5.80;99.90;;;;;;5007109;28;20060;-62
2022/12/13 08:50:53;;;;;;;54.35;15.27;;;-5.70;99.90;;;;;;5004010;28;20072;-66
2022/12/13 08:53:19;;;;;;;49.83;15.30;;;-5.70;99.90;;;;;;5001919;28;20042;-66
2022/12/13 08:55:45;;;;;;;53.85;14.95;;;-5.70;99.90;;;;;;5001676;28;20029;-62
2022/12/13 08:58:13;;;;;;;62.25;18.30;;;-5.50;99.90;;;;;;5011035;28;20509;-64
2022/12/13 09:00:39;;;;;;;62.78;15.68;;;-5.50;99.90;;;;;;5000323;28;20187;-64
2022/12/13 09:03:05;;;;;;;52.75;15.10;;;-5.40;99.90;;;;;;5009471;28;20045;-63
2022/12/13 09:05:32;;;;;;;53.55;16.25;;;-5.30;99.90;;;;;;5008030;28;20526;-65
2022/12/13 09:08:01;;;;;;;50.58;14.30;;;-5.20;99.90;;;;;;4989413;28;20410;-65
2022/12/13 09:10:28;;;;;;;44.47;14.75;;;-5.10;99.90;;;;;;5002238;28;20037;-65
2022/12/13 09:12:56;;;;;;;46.33;14.55;;;-4.90;99.90;;;;;;4995675;28;20034;-67
2022/12/13 09:15:21;;;;;;;46.58;15.43;;;-4.90;99.90;;;;;;4995346;28;20034;-65
2022/12/13 09:17:47;;;;;;;43.47;13.05;;;-4.70;99.90;;;;;;5001024;28;20045;-66
2022/12/13 09:20:13;;;;;;;43.90;13.63;;;-4.70;99.90;;;;;;5004947;28;20029;-64
2022/12/13 09:22:38;;;;;;;46.30;14.65;;;-4.60;99.90;;;;;;5008808;28;20054;-69
2022/12/13 09:25:05;;;;;;;44.58;14.80;;;-4.50;99.90;;;;;;5007568;28;20083;-66
2022/12/13 09:27:31;;;;;;;38.65;12.90;;;-4.40;99.90;;;;;;4999883;28;20022;-65
2022/12/13 09:29:57;;;;;;;42.72;13.60;;;-4.30;99.90;;;;;;5002762;28;20044;-66
2022/12/13 09:32:24;;;;;;;48.67;14.88;;;-4.20;99.90;;;;;;5003718;28;20034;-63
2022/12/13 09:34:49;;;;;;;43.55;14.25;;;-4.10;99.90;;;;;;5005789;28;20115;-66
2022/12/13 09:37:15;;;;;;;48.55;15.15;;;-4.00;99.90;;;;;;5000282;28;20096;-65
2022/12/13 09:39:41;;;;;;;40.45;13.52;;;-3.90;99.90;;;;;;4996946;28;20675;-65
2022/12/13 09:42:19;;;;;;;42.58;13.85;;;-3.90;99.90;;;;;;4996909;28;20038;-64
2022/12/13 09:44:57;;;;;;;43.53;13.18;;;-3.80;99.90;;;;;;5006204;28;20026;-66
2022/12/13 09:47:34;;;;;;;37.47;11.40;;;-3.70;99.90;;;;;;5008888;28;20025;-65
2022/12/13 09:50:03;;;;;;;31.17;10.55;;;-3.60;99.90;;;;;;5007429;28;20109;-66
2022/12/13 09:52:37;;;;;;;28.13;9.90;;;-3.60;99.90;;;;;;5006994;28;20136;-66
2022/12/13 09:55:15;;;;;;;33.63;10.88;;;-3.50;99.90;;;;;;4991755;28;20441;-64
2022/12/13 09:57:42;;;;;;;35.92;10.77;;;-3.50;99.90;;;;;;4995176;28;20037;-65
2022/12/13 10:00:15;;;;;;;40.53;11.77;;;-3.40;99.90;;;;;;5010493;28;20467;-65
2022/12/13 10:02:52;;;;;;;35.45;11.32;;;-3.30;99.90;;;;;;4990914;28;20056;-64
2022/12/13 10:05:27;;;;;;;32.78;10.60;;;-3.20;99.90;;;;;;5002291;28;20866;-65
2022/12/13 10:07:56;;;;;;;38.35;11.98;;;-3.20;99.90;;;;;;5008004;28;20026;-64
2022/12/13 10:10:23;;;;;;;47.47;13.23;;;-3.20;99.90;;;;;;5000090;28;20033;-66
2022/12/13 10:13:02;;;;;;;32.83;11.63;;;-3.20;99.90;;;;;;5003275;28;20056;-66
2022/12/13 10:15:32;;;;;;;41.60;12.45;;;-3.10;99.90;;;;;;5005338;28;20045;-64
2022/12/13 10:18:01;;;;;;;44.83;12.73;;;-3.20;99.90;;;;;;4993929;28;20026;-70
2022/12/13 10:20:28;;;;;;;33.88;11.60;;;-3.10;99.90;;;;;;4988315;28;20046;-65
2022/12/13 10:22:57;;;;;;;32.17;11.60;;;-3.10;99.90;;;;;;5002714;28;20057;-66
2022/12/13 10:25:43;;;;;;;31.45;11.20;;;-3.00;99.90;;;;;;5007116;28;20042;-66
2022/12/13 10:28:09;;;;;;;31.67;10.70;;;-3.00;99.90;;;;;;5004857;28;20033;-65
2022/12/13 10:30:41;;;;;;;28.20;10.65;;;-3.00;99.90;;;;;;5002484;28;20025;-66
2022/12/13 10:33:19;;;;;;;30.58;11.32;;;-3.00;99.90;;;;;;4997367;28;20064;-66
2022/12/13 10:36:02;;;;;;;31.80;11.00;;;-3.00;99.90;;;;;;5008484;28;20033;-66
2022/12/13 10:38:29;;;;;;;35.33;11.52;;;-3.00;99.90;;;;;;4997953;28;20034;-65
2022/12/13 10:40:55;;;;;;;34.63;10.82;;;-2.90;99.90;;;;;;5006481;28;20100;-66
2022/12/13 10:43:32;;;;;;;39.20;12.18;;;-2.90;99.90;;;;;;5006620;28;20037;-63
2022/12/13 10:46:00;;;;;;;31.42;10.98;;;-2.90;99.90;;;;;;5007159;28;20026;-69
2022/12/13 10:48:48;;;;;;;36.95;11.90;;;-2.90;99.90;;;;;;5009280;28;20025;-64
2022/12/13 10:51:20;;;;;;;32.63;10.95;;;-2.90;99.90;;;;;;5008320;28;20506;-65
2022/12/13 10:53:50;;;;;;;32.00;10.60;;;-2.90;99.90;;;;;;5009299;28;20041;-65
2022/12/13 10:56:18;;;;;;;31.02;11.02;;;-2.80;99.90;;;;;;5006543;28;20599;-64
2022/12/13 10:58:45;;;;;;;31.00;10.52;;;-2.70;99.90;;;;;;4999607;28;20034;-64
2022/12/13 11:01:17;;;;;;;36.15;11.82;;;-2.70;99.90;;;;;;5004984;28;20079;-65
2022/12/13 11:04:01;;;;;;;33.22;10.52;;;-2.60;99.90;;;;;;5008671;28;20057;-65
2022/12/13 11:06:42;;;;;;;33.92;11.07;;;-2.60;99.90;;;;;;5011921;28;20056;-63
2022/12/13 11:09:29;;;;;;;27.23;10.38;;;-2.50;99.90;;;;;;5011789;28;20507;-64
2022/12/13 11:11:58;;;;;;;30.35;10.77;;;-2.60;99.90;;;;;;5009271;28;20034;-64
2022/12/13 11:14:33;;;;;;;31.90;10.77;;;-2.60;99.90;;;;;;5028331;28;20147;-65
2022/12/13 11:17:09;;;;;;;28.88;10.73;;;-2.60;99.90;;;;;;5014225;28;20364;-68
2022/12/13 11:20:18;;;;;;;35.13;10.95;;;-2.70;99.90;;;;;;5009249;28;20026;-67
2022/12/13 11:22:44;;;;;;;31.38;11.10;;;-2.50;99.90;;;;;;4952513;28;20567;-66
2022/12/13 11:25:25;;;;;;;31.17;10.45;;;-2.50;99.90;;;;;;5003015;28;20046;-66
2022/12/13 11:28:18;;;;;;;41.10;11.25;;;-2.50;99.90;;;;;;5006752;28;20555;-64
2022/12/13 11:30:58;;;;;;;33.30;10.23;;;-2.40;99.90;;;;;;5006238;28;20034;-64
2022/12/13 11:34:14;;;;;;;29.90;10.70;;;-2.40;99.90;;;;;;5010603;28;20486;-64
2022/12/13 11:37:10;;;;;;;26.30;9.93;;;-2.40;99.90;;;;;;4981645;28;20061;-65
2022/12/13 11:39:48;;;;;;;28.25;10.07;;;-2.40;99.90;;;;;;5030968;28;20038;-66
2022/12/13 11:42:23;;;;;;;33.13;10.65;;;-2.50;99.90;;;;;;5011175;28;20095;-65
2022/12/13 11:45:10;;;;;;;34.35;11.50;;;-2.50;99.90;;;;;;5008597;28;20057;-62
2022/12/13 11:47:57;;;;;;;35.42;10.57;;;-2.40;99.90;;;;;;5008267;28;20044;-64
2022/12/13 11:50:30;;;;;;;36.70;12.60;;;-2.40;99.90;;;;;;5009208;28;20109;-65
2022/12/13 11:53:03;;;;;;;34.17;11.93;;;-2.50;99.90;;;;;;5011462;28;20441;-64
2022/12/13 11:55:31;;;;;;;40.38;13.32;;;-2.50;99.90;;;;;;5005187;28;20026;-62
2022/12/13 11:58:00;;;;;;;38.83;12.63;;;-2.50;99.90;;;;;;5011558;28;20036;-63
2022/12/13 12:00:40;;;;;;;39.38;12.27;;;-2.40;99.90;;;;;;5010546;28;20103;-62
2022/12/13 12:03:16;;;;;;;38.27;12.47;;;-2.40;99.90;;;;;;5016779;28;20034;-65
2022/12/13 12:05:54;;;;;;;42.80;13.38;;;-2.40;99.90;;;;;;5010722;28;20315;-62
2022/12/13 12:08:31;;;;;;;36.35;11.63;;;-2.40;99.90;;;;;;5008558;28;20026;-64
2022/12/13 12:11:28;;;;;;;38.15;11.57;;;-2.30;99.90;;;;;;5006052;28;20478;-64
2022/12/13 12:14:05;;;;;;;37.63;11.73;;;-2.30;99.90;;;;;;5010960;28;20042;-63
2022/12/13 12:16:59;;;;;;;35.28;11.50;;;-2.20;99.90;;;;;;5007608;28;20037;-63
2022/12/13 12:19:32;;;;;;;27.42;9.23;;;-2.20;99.90;;;;;;5008782;28;20028;-63
2022/12/13 12:22:06;;;;;;;36.45;10.70;;;-2.20;99.90;;;;;;5005878;28;20041;-63
2022/12/13 12:24:56;;;;;;;30.52;10.82;;;-2.20;99.90;;;;;;5005830;28;20065;-64
2022/12/13 12:27:56;;;;;;;41.88;10.77;;;-2.20;99.90;;;;;;5004439;28;20037;-63
2022/12/13 12:30:40;;;;;;;41.10;11.30;;;-2.30;99.90;;;;;;4996820;28;20050;-63
2022/12/13 12:33:36;;;;;;;32.63;11.57;;;-2.20;99.90;;;;;;5007533;28;20117;-63
2022/12/13 12:36:10;;;;;;;35.30;11.45;;;-2.10;99.90;;;;;;5011146;28;20506;-62
2022/12/13 12:38:57;;;;;;;36.25;11.38;;;-1.90;99.90;;;;;;5010383;28;20058;-63
2022/12/13 12:41:50;;;;;;;41.33;12.57;;;-1.80;99.90;;;;;;5007195;28;20030;-63
2022/12/13 12:44:28;;;;;;;50.08;13.25;;;-1.80;99.90;;;;;;5010101;28;20107;-62
2022/12/13 12:47:24;;;;;;;45.45;14.05;;;-1.90;99.90;;;;;;4996638;28;20049;-63
2022/12/13 12:49:59;;;;;;;35.97;12.75;;;-1.80;99.90;;;;;;5004477;28;20026;-64